Time;durP1;ratioP1;P1;durP2;ratioP2;P2;SDS_P1;SDS_P2;PMS_P1;PMS_P2;Temp;Humidity;BMP_temperature;BMP_pressure;BME280_temperature;BME280_humidity;BME280_pressure;Samples;Min_cycle;Max_cycle;Signal;HPM_P1;HPM_P2
2022/01/31 00:01:15;;;;;;;15.27;3.85;;;3.50;99.90;;;;;;5045894;28;20040;-66
2022/01/31 00:03:41;;;;;;;17.92;3.60;;;3.50;99.90;;;;;;5048910;28;20041;-66
2022/01/31 00:06:06;;;;;;;20.60;4.35;;;3.60;99.90;;;;;;5049294;28;20094;-65
2022/01/31 00:08:32;;;;;;;18.55;3.47;;;3.60;99.90;;;;;;5047964;28;20429;-65
2022/01/31 00:10:58;;;;;;;19.00;4.20;;;3.70;99.90;;;;;;5054649;28;20324;-66
2022/01/31 00:13:33;;;;;;;22.58;4.07;;;3.70;99.90;;;;;;5066046;28;20409;-66
2022/01/31 00:15:58;;;;;;;21.17;5.18;;;3.70;99.90;;;;;;5033384;28;20029;-66
2022/01/31 00:18:24;;;;;;;21.13;4.28;;;3.70;99.90;;;;;;5061941;28;20111;-63
2022/01/31 00:20:50;;;;;;;18.55;4.20;;;3.70;99.90;;;;;;5036314;28;20046;-66
2022/01/31 00:23:15;;;;;;;19.90;4.20;;;3.70;99.90;;;;;;5046308;28;20075;-66
2022/01/31 00:25:41;;;;;;;21.73;5.05;;;3.70;99.90;;;;;;5049663;28;20060;-66
2022/01/31 00:28:06;;;;;;;23.95;4.32;;;3.80;99.90;;;;;;5049501;28;20041;-66
2022/01/31 00:30:32;;;;;;;15.88;4.20;;;3.80;99.90;;;;;;5045846;28;20080;-66
2022/01/31 00:32:58;;;;;;;13.68;4.45;;;3.80;99.90;;;;;;5031121;28;20448;-65
2022/01/31 00:35:25;;;;;;;22.08;4.68;;;3.80;99.90;;;;;;5046784;28;20388;-66
2022/01/31 00:37:51;;;;;;;16.38;4.75;;;3.80;99.90;;;;;;5048432;28;20071;-66
2022/01/31 00:40:17;;;;;;;19.75;5.20;;;3.80;99.90;;;;;;5050014;28;20079;-65
2022/01/31 00:42:43;;;;;;;13.48;5.78;;;3.80;99.90;;;;;;5049110;28;20391;-67
2022/01/31 00:45:16;;;;;;;18.63;5.72;;;3.80;99.90;;;;;;5045983;28;20537;-65
2022/01/31 00:47:46;;;;;;;15.23;4.85;;;3.80;99.90;;;;;;5041080;28;20115;-65
2022/01/31 00:50:13;;;;;;;21.55;5.38;;;3.80;99.90;;;;;;5065866;28;20052;-66
2022/01/31 00:52:41;;;;;;;22.15;5.20;;;3.80;99.90;;;;;;5069817;28;20407;-66
2022/01/31 00:55:09;;;;;;;25.38;6.45;;;3.80;99.90;;;;;;5056833;28;20109;-64
2022/01/31 00:57:35;;;;;;;15.98;5.97;;;3.80;99.90;;;;;;5057015;28;20033;-66
2022/01/31 01:00:00;;;;;;;19.98;5.72;;;3.80;99.90;;;;;;5053440;28;20117;-65
2022/01/31 01:02:26;;;;;;;20.02;6.03;;;3.80;99.90;;;;;;5060306;28;20051;-66
2022/01/31 01:04:52;;;;;;;18.83;6.22;;;3.90;99.90;;;;;;5045065;28;20044;-64
2022/01/31 01:07:19;;;;;;;16.67;5.72;;;3.90;99.90;;;;;;5045467;28;20028;-65
2022/01/31 01:09:46;;;;;;;21.05;5.63;;;3.80;99.90;;;;;;5069593;28;20449;-65
2022/01/31 01:12:13;;;;;;;17.13;7.25;;;3.80;99.90;;;;;;5054625;28;20119;-65
2022/01/31 01:14:39;;;;;;;19.90;6.47;;;3.80;99.90;;;;;;5069314;28;20048;-64
2022/01/31 01:17:05;;;;;;;19.70;6.28;;;3.70;99.90;;;;;;5069204;28;20052;-66
2022/01/31 01:19:31;;;;;;;19.02;5.82;;;3.70;99.90;;;;;;5051862;28;20071;-64
2022/01/31 01:21:56;;;;;;;20.70;5.72;;;3.80;99.90;;;;;;5057044;28;20089;-66
2022/01/31 01:24:22;;;;;;;22.77;7.35;;;3.70;99.90;;;;;;5048339;28;20585;-66
2022/01/31 01:26:48;;;;;;;19.70;6.47;;;3.60;99.90;;;;;;5067982;28;20092;-67
2022/01/31 01:29:15;;;;;;;21.55;7.20;;;3.60;99.90;;;;;;5040004;28;20044;-66
2022/01/31 01:31:41;;;;;;;19.75;7.32;;;3.50;99.90;;;;;;5051993;28;20059;-67
2022/01/31 01:34:07;;;;;;;20.55;6.40;;;3.50;99.90;;;;;;5051371;28;20460;-68
2022/01/31 01:36:34;;;;;;;22.45;6.90;;;3.40;99.90;;;;;;5051715;28;20071;-66
2022/01/31 01:39:00;;;;;;;26.38;8.85;;;3.30;99.90;;;;;;5051440;28;20051;-66
2022/01/31 01:41:26;;;;;;;25.70;8.85;;;3.20;99.90;;;;;;5070634;28;20384;-67
2022/01/31 01:43:52;;;;;;;26.15;8.55;;;3.10;99.90;;;;;;5066478;28;20481;-66
2022/01/31 01:46:17;;;;;;;26.52;9.35;;;3.00;99.90;;;;;;5045311;28;20035;-65
2022/01/31 01:48:43;;;;;;;25.60;8.73;;;2.90;99.90;;;;;;5051737;28;20537;-66
2022/01/31 01:51:08;;;;;;;23.73;10.13;;;2.90;99.90;;;;;;5041969;28;20131;-64
2022/01/31 01:53:34;;;;;;;27.35;9.43;;;2.80;99.90;;;;;;5051858;28;20102;-64
2022/01/31 01:56:00;;;;;;;26.88;9.82;;;2.80;99.90;;;;;;5052563;28;20041;-66
2022/01/31 01:58:30;;;;;;;24.23;9.80;;;2.70;99.90;;;;;;5066801;28;20055;-63
2022/01/31 02:01:02;;;;;;;28.05;10.38;;;2.60;99.90;;;;;;5035683;28;20041;-65
2022/01/31 02:03:30;;;;;;;35.00;10.88;;;2.60;99.90;;;;;;5043451;28;20376;-64
2022/01/31 02:05:56;;;;;;;31.85;11.40;;;2.50;99.90;;;;;;5042608;28;20119;-66
2022/01/31 02:08:23;;;;;;;36.00;13.93;;;2.50;99.90;;;;;;5038901;28;20080;-64
2022/01/31 02:10:49;;;;;;;28.63;11.18;;;2.30;99.90;;;;;;5069049;28;20073;-65
2022/01/31 02:13:15;;;;;;;33.05;12.40;;;2.20;99.90;;;;;;5068387;28;20392;-63
2022/01/31 02:15:44;;;;;;;29.10;13.88;;;2.60;99.90;;;;;;5061356;28;20464;-63
2022/01/31 02:18:10;;;;;;;29.65;13.35;;;2.60;99.90;;;;;;5050848;28;20072;-66
2022/01/31 02:20:41;;;;;;;30.13;13.43;;;1.90;99.90;;;;;;5068260;28;20125;-67
2022/01/31 02:23:08;;;;;;;30.38;13.32;;;2.20;99.90;;;;;;5049019;28;20068;-64
2022/01/31 02:25:55;;;;;;;35.47;14.02;;;2.50;99.90;;;;;;5060941;28;20038;-65
2022/01/31 02:28:23;;;;;;;31.90;14.20;;;2.20;99.90;;;;;;5063750;28;20089;-65
2022/01/31 02:30:49;;;;;;;30.88;13.90;;;2.70;99.90;;;;;;5068015;28;20052;-64
2022/01/31 02:33:15;;;;;;;30.05;13.80;;;2.30;99.90;;;;;;5049637;28;20040;-64
2022/01/31 02:35:40;;;;;;;33.10;15.15;;;2.00;99.90;;;;;;5067436;28;20130;-65
2022/01/31 02:38:06;;;;;;;33.65;14.77;;;2.70;99.90;;;;;;5067873;28;20044;-64
2022/01/31 02:40:32;;;;;;;30.35;15.48;;;2.70;99.90;;;;;;5068079;28;20119;-65
2022/01/31 02:42:58;;;;;;;29.95;16.05;;;2.50;99.90;;;;;;5051305;28;20119;-64
2022/01/31 02:45:24;;;;;;;33.03;15.38;;;2.00;99.90;;;;;;5068190;28;20178;-64
2022/01/31 02:47:55;;;;;;;31.15;15.43;;;2.10;99.90;;;;;;5062730;28;20033;-66
2022/01/31 02:50:21;;;;;;;37.65;15.43;;;2.60;99.90;;;;;;5067420;28;20070;-65
2022/01/31 02:52:56;;;;;;;34.42;15.63;;;2.60;99.90;;;;;;5052535;28;20053;-65
2022/01/31 02:55:22;;;;;;;33.85;15.38;;;2.50;99.90;;;;;;5060806;28;20072;-65
2022/01/31 02:57:48;;;;;;;35.83;15.68;;;2.10;99.90;;;;;;5050939;28;20507;-64
2022/01/31 03:00:14;;;;;;;31.30;14.15;;;2.10;99.90;;;;;;5050590;28;20089;-64
2022/01/31 03:02:39;;;;;;;34.90;13.88;;;2.10;99.90;;;;;;5050487;28;20115;-66
2022/01/31 03:05:05;;;;;;;32.88;13.70;;;2.30;99.90;;;;;;5066071;28;20037;-65
2022/01/31 03:07:31;;;;;;;31.73;13.68;;;2.70;99.90;;;;;;5047969;28;20062;-66
2022/01/31 03:09:56;;;;;;;26.27;13.60;;;2.90;99.90;;;;;;5066990;28;20085;-67
2022/01/31 03:12:22;;;;;;;28.52;13.80;;;2.80;99.90;;;;;;5063737;28;20053;-68
2022/01/31 03:14:48;;;;;;;25.45;12.70;;;2.90;99.90;;;;;;5032328;28;20186;-66
2022/01/31 03:17:14;;;;;;;25.02;12.68;;;2.30;99.90;;;;;;5062860;28;20044;-63
2022/01/31 03:19:41;;;;;;;24.55;12.07;;;2.90;99.90;;;;;;5050417;28;20044;-65
2022/01/31 03:22:07;;;;;;;21.02;10.40;;;2.30;99.90;;;;;;5066496;28;20040;-63
2022/01/31 03:24:34;;;;;;;21.48;10.73;;;2.80;99.90;;;;;;5066682;28;20408;-65
2022/01/31 03:26:59;;;;;;;24.95;12.02;;;2.80;99.90;;;;;;5058502;28;20052;-66
2022/01/31 03:29:25;;;;;;;23.48;10.95;;;2.30;99.90;;;;;;5042459;28;20052;-65
2022/01/31 03:31:51;;;;;;;21.30;10.07;;;2.80;99.90;;;;;;5067086;28;20450;-66
2022/01/31 03:34:16;;;;;;;19.20;10.15;;;2.70;99.90;;;;;;5065531;28;20036;-67
2022/01/31 03:36:43;;;;;;;22.40;10.05;;;2.40;99.90;;;;;;5046369;28;20044;-66
2022/01/31 03:39:08;;;;;;;26.20;10.10;;;2.30;99.90;;;;;;5056043;28;20044;-66
2022/01/31 03:41:34;;;;;;;23.50;10.45;;;2.60;99.90;;;;;;5041124;28;20041;-64
2022/01/31 03:43:59;;;;;;;18.80;9.85;;;3.10;99.90;;;;;;5066451;28;20046;-65
2022/01/31 03:46:25;;;;;;;29.33;11.32;;;3.10;99.90;;;;;;5056941;28;20663;-66
2022/01/31 03:48:51;;;;;;;23.55;10.82;;;2.50;99.90;;;;;;5083219;28;20543;-68
2022/01/31 03:51:16;;;;;;;24.13;10.75;;;2.20;99.90;;;;;;5050086;28;20379;-66
2022/01/31 03:53:42;;;;;;;25.60;10.68;;;2.20;99.90;;;;;;5065334;28;20043;-66
2022/01/31 03:56:08;;;;;;;26.50;10.40;;;2.90;99.90;;;;;;5058962;28;20043;-66
2022/01/31 03:58:33;;;;;;;21.48;9.93;;;2.30;99.90;;;;;;5049258;28;20050;-66
2022/01/31 04:00:59;;;;;;;21.77;10.02;;;3.50;99.90;;;;;;5051090;28;20151;-66
2022/01/31 04:03:25;;;;;;;24.67;10.25;;;2.50;99.90;;;;;;5029592;28;20076;-66
2022/01/31 04:05:50;;;;;;;20.40;9.38;;;2.50;99.90;;;;;;5050341;28;20052;-67
2022/01/31 04:08:16;;;;;;;19.23;9.98;;;2.70;99.90;;;;;;5049604;28;20036;-66
2022/01/31 04:10:41;;;;;;;25.38;10.30;;;2.90;99.90;;;;;;5050075;28;20402;-67
2022/01/31 04:13:07;;;;;;;31.20;10.60;;;3.60;99.90;;;;;;5050430;28;20040;-66
2022/01/31 04:15:39;;;;;;;24.67;10.27;;;2.80;99.90;;;;;;5034207;28;20477;-67
2022/01/31 04:18:05;;;;;;;25.15;9.30;;;3.80;99.90;;;;;;5064487;28;20123;-69
2022/01/31 04:20:31;;;;;;;25.63;9.13;;;3.10;99.90;;;;;;5050902;28;20036;-66
2022/01/31 04:23:02;;;;;;;32.80;10.52;;;4.00;99.90;;;;;;5026041;28;20510;-65
2022/01/31 04:25:29;;;;;;;26.77;7.60;;;3.30;99.90;;;;;;5049612;28;20476;-65
2022/01/31 04:28:04;;;;;;;32.75;8.23;;;3.40;99.90;;;;;;5026932;28;20040;-66
2022/01/31 04:30:45;;;;;;;25.63;7.03;;;3.90;99.90;;;;;;5036637;28;20040;-66
2022/01/31 04:33:10;;;;;;;26.30;5.72;;;3.60;99.90;;;;;;5035532;28;20095;-66
2022/01/31 04:35:36;;;;;;;26.77;6.65;;;4.60;99.90;;;;;;5070052;28;20483;-66
2022/01/31 04:38:01;;;;;;;27.98;5.78;;;4.60;99.90;;;;;;5052333;28;20043;-66
2022/01/31 04:40:27;;;;;;;27.73;5.45;;;4.60;99.90;;;;;;5053603;28;20602;-66
2022/01/31 04:42:52;;;;;;;18.65;4.25;;;4.50;99.90;;;;;;5053242;28;20056;-67
2022/01/31 04:45:18;;;;;;;20.42;4.20;;;4.70;99.90;;;;;;5071841;28;20028;-66
2022/01/31 04:47:43;;;;;;;19.50;3.88;;;4.80;99.90;;;;;;5050550;28;20037;-66
2022/01/31 04:50:09;;;;;;;16.60;2.78;;;4.10;99.90;;;;;;5044854;28;20170;-70
2022/01/31 04:52:38;;;;;;;20.55;2.97;;;4.80;99.90;;;;;;5070023;28;20036;-65
2022/01/31 04:55:05;;;;;;;15.57;2.42;;;4.60;99.90;;;;;;5068752;28;20036;-65
2022/01/31 04:57:30;;;;;;;12.50;2.33;;;4.30;99.90;;;;;;5070057;28;20059;-65
2022/01/31 04:59:56;;;;;;;15.48;1.77;;;4.70;99.90;;;;;;5046086;28;20037;-65
2022/01/31 05:02:23;;;;;;;14.10;2.90;;;4.60;99.90;;;;;;5066378;28;20043;-66
2022/01/31 05:04:49;;;;;;;16.25;2.42;;;3.90;99.90;;;;;;5049949;28;20453;-65
2022/01/31 05:07:14;;;;;;;18.40;3.03;;;3.80;99.90;;;;;;5048826;28;20179;-65
2022/01/31 05:09:40;;;;;;;19.73;3.00;;;4.20;99.90;;;;;;5068230;28;20086;-66
2022/01/31 05:12:06;;;;;;;16.77;2.92;;;4.30;99.90;;;;;;5042155;28;20051;-66
2022/01/31 05:14:32;;;;;;;21.17;3.20;;;4.10;99.90;;;;;;5053615;28;20052;-67
2022/01/31 05:16:57;;;;;;;20.30;4.32;;;4.30;99.90;;;;;;5052391;28;20032;-65
2022/01/31 05:19:24;;;;;;;15.68;3.08;;;4.00;99.90;;;;;;5034019;28;20040;-66
2022/01/31 05:21:50;;;;;;;21.77;3.45;;;3.60;99.90;;;;;;5070640;28;20036;-65
2022/01/31 05:24:15;;;;;;;17.48;2.42;;;3.60;99.90;;;;;;5035360;28;20550;-66
2022/01/31 05:26:41;;;;;;;20.13;3.03;;;4.20;99.90;;;;;;5072147;28;20063;-66
2022/01/31 05:29:06;;;;;;;22.38;3.75;;;3.60;99.90;;;;;;5049112;28;20102;-66
2022/01/31 05:31:32;;;;;;;22.55;3.08;;;4.10;99.90;;;;;;5052266;28;20144;-64
2022/01/31 05:33:57;;;;;;;13.18;2.83;;;4.20;99.90;;;;;;5052455;28;20425;-65
2022/01/31 05:36:24;;;;;;;11.35;3.03;;;4.50;99.90;;;;;;5049898;28;20709;-65
2022/01/31 05:38:50;;;;;;;16.15;3.08;;;3.90;99.90;;;;;;5051943;28;20060;-65
2022/01/31 05:41:19;;;;;;;14.98;2.05;;;3.80;99.90;;;;;;5068153;28;20159;-65
2022/01/31 05:43:46;;;;;;;19.53;2.87;;;4.00;99.90;;;;;;5052437;28;20063;-66
2022/01/31 05:46:12;;;;;;;6.90;1.35;;;4.30;99.90;;;;;;5033498;28;20295;-66
2022/01/31 05:48:37;;;;;;;8.50;1.08;;;3.80;99.90;;;;;;5059182;28;20044;-66
2022/01/31 05:51:06;;;;;;;7.28;1.30;;;4.40;99.90;;;;;;5053573;28;20467;-66
2022/01/31 05:53:31;;;;;;;10.13;1.40;;;4.00;99.90;;;;;;5053062;28;20045;-66
2022/01/31 05:55:58;;;;;;;10.10;1.13;;;3.90;99.90;;;;;;5053240;28;20069;-66
2022/01/31 05:58:24;;;;;;;6.80;1.45;;;4.10;99.90;;;;;;5034140;28;20064;-66
2022/01/31 06:00:50;;;;;;;10.65;1.45;;;3.70;99.90;;;;;;5035618;28;20183;-65
2022/01/31 06:03:15;;;;;;;5.47;1.20;;;3.50;99.90;;;;;;5052919;28;20151;-65
2022/01/31 06:05:41;;;;;;;9.05;1.33;;;4.20;99.90;;;;;;5067893;28;20102;-66
2022/01/31 06:08:06;;;;;;;10.13;1.30;;;4.00;99.90;;;;;;5050658;28;20119;-66
2022/01/31 06:10:33;;;;;;;6.60;1.75;;;3.70;99.90;;;;;;5051954;28;20460;-65
2022/01/31 06:12:59;;;;;;;8.35;1.02;;;4.30;99.90;;;;;;5048034;28;20044;-65
2022/01/31 06:15:24;;;;;;;11.73;1.30;;;4.30;99.90;;;;;;5052351;28;20036;-65
2022/01/31 06:17:50;;;;;;;7.13;1.05;;;3.60;99.90;;;;;;5051173;28;20040;-65
2022/01/31 06:20:16;;;;;;;9.95;1.63;;;4.00;99.90;;;;;;5051428;28;20099;-65
2022/01/31 06:22:50;;;;;;;7.53;1.55;;;4.20;99.90;;;;;;5053152;28;20372;-67
2022/01/31 06:25:17;;;;;;;9.77;2.15;;;4.10;99.90;;;;;;5050906;28;20032;-66
2022/01/31 06:27:43;;;;;;;6.70;1.02;;;4.30;99.90;;;;;;5035530;28;20036;-65
2022/01/31 06:30:09;;;;;;;5.88;1.17;;;3.90;99.90;;;;;;5066818;28;20159;-65
2022/01/31 06:32:34;;;;;;;5.95;1.00;;;4.20;99.90;;;;;;5035162;28;20135;-65
2022/01/31 06:35:00;;;;;;;5.43;1.30;;;4.10;99.90;;;;;;5067171;28;20119;-66
2022/01/31 06:37:26;;;;;;;5.65;1.02;;;3.80;99.90;;;;;;5050584;28;20201;-66
2022/01/31 06:39:51;;;;;;;5.60;1.58;;;4.10;99.90;;;;;;5051008;28;20041;-65
2022/01/31 06:42:17;;;;;;;8.07;1.38;;;4.00;99.90;;;;;;5048215;28;20048;-66
2022/01/31 06:44:42;;;;;;;5.72;1.13;;;4.10;99.90;;;;;;5069816;28;20147;-66
2022/01/31 06:47:08;;;;;;;7.53;1.33;;;3.60;99.90;;;;;;5046406;28;20041;-66
2022/01/31 06:49:33;;;;;;;7.88;1.30;;;4.30;99.90;;;;;;5028749;28;20473;-66
2022/01/31 06:51:59;;;;;;;11.10;1.42;;;4.20;99.90;;;;;;5032554;28;20493;-66
2022/01/31 06:54:24;;;;;;;10.98;1.30;;;4.20;99.90;;;;;;5066494;28;20426;-65
2022/01/31 06:56:50;;;;;;;8.65;1.45;;;4.40;99.90;;;;;;5051230;28;20059;-66
2022/01/31 06:59:15;;;;;;;9.30;1.63;;;4.40;99.90;;;;;;5048794;28;20338;-66
2022/01/31 07:01:41;;;;;;;10.05;1.58;;;4.30;99.90;;;;;;5061141;28;20033;-66
2022/01/31 07:04:07;;;;;;;11.45;3.03;;;4.40;99.90;;;;;;5029502;28;20032;-67
2022/01/31 07:06:32;;;;;;;10.13;1.42;;;4.20;99.90;;;;;;5050932;28;20063;-65
2022/01/31 07:08:59;;;;;;;5.90;1.42;;;4.00;99.90;;;;;;5050529;28;20043;-65
2022/01/31 07:11:28;;;;;;;7.78;1.70;;;3.90;99.90;;;;;;5046110;28;20474;-65
2022/01/31 07:16:46;;;;;;;12.95;2.33;;;4.00;99.90;;;;;;5031424;28;20060;-66
2022/01/31 07:19:11;;;;;;;11.48;1.88;;;4.30;99.90;;;;;;5049331;28;20409;-66
2022/01/31 07:21:45;;;;;;;10.05;1.80;;;4.00;99.90;;;;;;5033983;28;20039;-66
2022/01/31 07:24:21;;;;;;;7.38;1.50;;;4.50;99.90;;;;;;5053149;28;20484;-66
2022/01/31 07:26:48;;;;;;;8.63;1.63;;;4.00;99.90;;;;;;5065603;28;20051;-66
2022/01/31 07:29:14;;;;;;;8.95;1.85;;;4.20;99.90;;;;;;5051511;28;20047;-66
2022/01/31 07:31:40;;;;;;;14.85;2.20;;;4.60;99.90;;;;;;5047410;28;20049;-66
2022/01/31 07:34:07;;;;;;;8.70;2.17;;;4.70;99.90;;;;;;5048852;28;20413;-65
2022/01/31 07:36:33;;;;;;;11.50;1.85;;;4.60;99.90;;;;;;5050314;28;20051;-66
2022/01/31 07:38:59;;;;;;;13.32;1.83;;;4.40;99.90;;;;;;5035316;28;20428;-64
2022/01/31 07:41:24;;;;;;;9.73;1.55;;;4.70;99.90;;;;;;5056092;28;20078;-66
2022/01/31 07:43:50;;;;;;;10.10;1.50;;;4.20;99.90;;;;;;5033021;28;20506;-66
2022/01/31 07:46:16;;;;;;;11.75;1.58;;;4.60;99.90;;;;;;5042191;28;20041;-65
2022/01/31 07:48:42;;;;;;;8.68;1.70;;;4.10;99.90;;;;;;5048773;28;20040;-66
2022/01/31 07:51:11;;;;;;;12.93;2.03;;;4.20;99.90;;;;;;5049893;28;20276;-66
2022/01/31 07:53:40;;;;;;;15.05;1.90;;;4.50;99.90;;;;;;5050511;28;20047;-65
2022/01/31 07:56:10;;;;;;;6.97;1.20;;;4.70;99.90;;;;;;5041154;28;20044;-65
2022/01/31 07:58:36;;;;;;;10.02;1.52;;;4.40;99.90;;;;;;5045317;28;20045;-66
2022/01/31 08:01:04;;;;;;;7.85;1.40;;;4.70;99.90;;;;;;5053415;28;20167;-65
2022/01/31 08:03:30;;;;;;;12.13;1.52;;;4.30;99.90;;;;;;5069989;28;20036;-65
2022/01/31 08:05:55;;;;;;;6.35;1.40;;;4.50;99.90;;;;;;5073841;28;20395;-64
2022/01/31 08:08:21;;;;;;;7.95;1.20;;;4.50;99.90;;;;;;5049633;28;20039;-65
2022/01/31 08:10:46;;;;;;;7.40;1.10;;;4.40;99.90;;;;;;5057400;28;20487;-65
2022/01/31 08:13:13;;;;;;;7.38;1.50;;;4.30;99.90;;;;;;5033809;28;20067;-65
2022/01/31 08:15:59;;;;;;;10.88;1.40;;;4.50;99.90;;;;;;5073136;28;20568;-65
2022/01/31 08:18:25;;;;;;;10.40;1.10;;;4.30;99.90;;;;;;5054023;28;20044;-64
2022/01/31 08:20:51;;;;;;;9.73;1.60;;;4.90;99.90;;;;;;5069915;28;20579;-64
2022/01/31 08:23:16;;;;;;;6.85;1.25;;;4.40;99.90;;;;;;5053216;28;20072;-64
2022/01/31 08:25:47;;;;;;;6.60;1.40;;;5.00;99.90;;;;;;5055450;28;20059;-64
2022/01/31 08:28:13;;;;;;;4.32;1.27;;;4.90;99.90;;;;;;5037073;28;20036;-64
2022/01/31 08:30:55;;;;;;;10.60;1.60;;;5.00;99.90;;;;;;5054906;28;20485;-65
2022/01/31 08:33:37;;;;;;;6.45;1.75;;;5.00;99.90;;;;;;5035633;28;20613;-65
2022/01/31 08:36:07;;;;;;;7.93;1.35;;;4.60;99.90;;;;;;5053648;28;20044;-65
2022/01/31 08:38:35;;;;;;;10.93;1.77;;;5.10;99.90;;;;;;5054241;28;20041;-66
2022/01/31 08:41:01;;;;;;;6.22;1.33;;;4.60;99.90;;;;;;5071434;28;20040;-65
2022/01/31 08:43:27;;;;;;;6.00;1.38;;;4.70;99.90;;;;;;5053537;28;20863;-65
2022/01/31 08:45:56;;;;;;;6.57;1.60;;;5.20;99.90;;;;;;5037657;28;20037;-65
2022/01/31 08:48:25;;;;;;;9.00;1.60;;;5.10;99.90;;;;;;5052157;28;20074;-65
2022/01/31 08:50:53;;;;;;;10.10;1.33;;;5.10;99.90;;;;;;5053396;28;20041;-65
2022/01/31 08:53:19;;;;;;;8.45;1.50;;;4.90;99.90;;;;;;5050501;28;20048;-65
2022/01/31 08:55:49;;;;;;;4.70;1.15;;;5.00;99.90;;;;;;5053532;28;20041;-65
2022/01/31 08:58:15;;;;;;;8.88;1.40;;;4.60;99.90;;;;;;5035337;28;20036;-65
2022/01/31 09:00:42;;;;;;;8.38;1.42;;;5.20;99.90;;;;;;5053397;28;20049;-65
2022/01/31 09:05:36;;;;;;;7.22;1.67;;;5.20;99.90;;;;;;5033449;28;20041;-64
2022/01/31 09:08:02;;;;;;;5.70;1.38;;;4.90;99.90;;;;;;5049814;28;20796;-65
2022/01/31 09:10:27;;;;;;;13.48;1.40;;;5.30;99.90;;;;;;5034344;28;20040;-64
2022/01/31 09:12:53;;;;;;;9.32;1.20;;;5.50;99.90;;;;;;5036900;28;20098;-65
2022/01/31 09:15:18;;;;;;;9.40;1.75;;;5.10;99.90;;;;;;5055254;28;20039;-65
2022/01/31 09:17:44;;;;;;;11.10;1.83;;;5.60;99.90;;;;;;5052481;28;20043;-65
2022/01/31 09:20:10;;;;;;;6.78;1.70;;;5.10;99.90;;;;;;5052830;28;20144;-65
2022/01/31 09:22:35;;;;;;;7.40;1.58;;;5.20;99.90;;;;;;5037122;28;20303;-65
2022/01/31 09:25:02;;;;;;;7.95;1.92;;;5.20;99.90;;;;;;5052671;28;20036;-66
2022/01/31 09:27:28;;;;;;;12.57;1.75;;;5.10;99.90;;;;;;5053847;28;20059;-65
2022/01/31 09:29:54;;;;;;;11.73;2.30;;;5.10;99.90;;;;;;5046186;28;20368;-65
2022/01/31 09:32:23;;;;;;;7.63;1.50;;;5.40;99.90;;;;;;5042554;28;20047;-65
2022/01/31 09:34:50;;;;;;;8.10;1.83;;;5.30;99.90;;;;;;5043006;28;20119;-65
2022/01/31 09:37:16;;;;;;;12.35;2.17;;;5.50;99.90;;;;;;5030680;28;20074;-65
2022/01/31 09:39:43;;;;;;;7.22;1.58;;;5.90;99.90;;;;;;5026902;28;20426;-65
2022/01/31 09:42:12;;;;;;;7.97;1.70;;;5.50;99.90;;;;;;5039414;28;20112;-65
2022/01/31 09:44:51;;;;;;;9.05;1.80;;;5.50;99.90;;;;;;5015301;28;20112;-65
2022/01/31 09:47:23;;;;;;;9.23;1.63;;;5.80;99.90;;;;;;5029507;28;20061;-65
2022/01/31 09:49:49;;;;;;;14.73;1.63;;;5.50;99.90;;;;;;5047781;28;20041;-65
2022/01/31 09:52:15;;;;;;;9.60;1.10;;;5.80;99.90;;;;;;5031480;28;20056;-66
2022/01/31 09:54:42;;;;;;;8.75;1.20;;;5.90;99.90;;;;;;5029884;28;20448;-66
2022/01/31 09:57:08;;;;;;;10.65;1.65;;;6.10;99.90;;;;;;5032988;28;20565;-66
2022/01/31 09:59:33;;;;;;;8.18;1.40;;;5.90;99.90;;;;;;5041151;28;20044;-65
2022/01/31 10:02:08;;;;;;;11.15;1.40;;;5.90;99.90;;;;;;5014971;28;20103;-66
2022/01/31 10:04:36;;;;;;;8.30;1.50;;;6.00;99.90;;;;;;5031855;28;20040;-66
2022/01/31 10:07:03;;;;;;;6.18;1.13;;;6.00;99.90;;;;;;5031999;28;20037;-66
2022/01/31 10:09:31;;;;;;;10.85;1.13;;;6.20;99.90;;;;;;5031575;28;20041;-66
2022/01/31 10:12:09;;;;;;;7.00;1.65;;;6.50;99.90;;;;;;5031170;28;20041;-65
2022/01/31 10:17:37;;;;;;;8.73;1.67;;;6.00;99.90;;;;;;5032094;28;20045;-66
2022/01/31 10:20:07;;;;;;;6.63;1.10;;;5.90;99.90;;;;;;5029007;28;20053;-66
2022/01/31 10:22:34;;;;;;;;;;;5.90;99.90;;;;;;5031570;28;20163;-65
2022/01/31 10:25:02;;;;;;;2.50;0.80;;;6.10;99.90;;;;;;5030750;28;20059;-66
2022/01/31 10:27:34;;;;;;;5.82;0.95;;;6.10;99.90;;;;;;5031440;28;20540;-66
2022/01/31 10:30:17;;;;;;;7.72;1.30;;;6.00;99.90;;;;;;5025789;28;20628;-65
2022/01/31 10:32:45;;;;;;;6.78;1.17;;;6.00;99.90;;;;;;5087664;28;20512;-66
2022/01/31 10:35:23;;;;;;;8.35;1.02;;;6.00;99.90;;;;;;5088697;28;20052;-66
2022/01/31 10:37:53;;;;;;;6.25;1.13;;;6.30;99.90;;;;;;5070660;28;20369;-67
2022/01/31 10:46:33;;;;;;;12.95;1.20;;;6.20;99.90;;;;;;5098740;28;20404;-66
2022/01/31 10:52:04;;;;;;;12.43;2.13;;;6.30;99.90;;;;;;5078771;28;20349;-66
2022/01/31 10:57:00;;;;;;;5.20;1.08;;;6.70;99.90;;;;;;5080429;28;20044;-67
2022/01/31 10:59:34;;;;;;;11.02;1.42;;;6.80;99.90;;;;;;5071831;28;20047;-66
2022/01/31 11:02:03;;;;;;;12.23;1.38;;;6.60;99.90;;;;;;5070108;28;20213;-66
2022/01/31 11:04:36;;;;;;;8.80;1.52;;;6.60;99.90;;;;;;5066336;28;20385;-66
2022/01/31 11:07:12;;;;;;;10.07;1.50;;;6.90;99.90;;;;;;5064965;28;20079;-67
2022/01/31 11:09:40;;;;;;;7.95;1.17;;;6.80;99.90;;;;;;5078023;28;20120;-67
2022/01/31 11:12:06;;;;;;;10.68;1.33;;;6.90;99.90;;;;;;5061546;28;20349;-66
2022/01/31 11:14:33;;;;;;;12.77;2.25;;;6.80;99.90;;;;;;5076357;28;20189;-67
2022/01/31 11:17:10;;;;;;;8.18;1.70;;;6.60;99.90;;;;;;5087274;28;20408;-66
2022/01/31 11:19:39;;;;;;;13.75;2.63;;;6.70;99.90;;;;;;5070417;28;20075;-66
2022/01/31 11:22:10;;;;;;;7.85;1.40;;;6.70;99.90;;;;;;5053473;28;20050;-67
2022/01/31 11:24:41;;;;;;;8.68;1.40;;;6.70;99.90;;;;;;5067944;28;20043;-67
2022/01/31 11:27:13;;;;;;;10.07;1.52;;;6.60;99.90;;;;;;5068905;28;20391;-68
2022/01/31 11:29:47;;;;;;;9.93;2.63;;;6.70;99.90;;;;;;5048633;28;20048;-67
2022/01/31 11:32:14;;;;;;;9.10;1.70;;;6.60;99.90;;;;;;5065277;28;20059;-67
2022/01/31 11:34:42;;;;;;;8.35;1.50;;;6.50;99.90;;;;;;5044625;28;20559;-67
2022/01/31 11:37:13;;;;;;;8.52;1.40;;;6.50;99.90;;;;;;5064180;28;20095;-65
2022/01/31 11:39:43;;;;;;;7.40;1.23;;;6.40;99.90;;;;;;5065964;28;20079;-65
2022/01/31 11:42:10;;;;;;;9.57;1.40;;;6.70;99.90;;;;;;5028032;28;20051;-66
2022/01/31 11:45:01;;;;;;;8.60;1.40;;;6.70;99.90;;;;;;5047472;28;20142;-67
2022/01/31 11:47:31;;;;;;;8.30;1.10;;;6.70;99.90;;;;;;5049690;28;20067;-67
2022/01/31 11:50:04;;;;;;;4.80;1.30;;;6.90;99.90;;;;;;5046003;28;20090;-68
2022/01/31 11:52:33;;;;;;;13.75;2.15;;;6.80;99.90;;;;;;5049564;28;20087;-67
2022/01/31 11:55:01;;;;;;;8.52;1.38;;;6.90;99.90;;;;;;5059266;28;20040;-67
2022/01/31 11:57:29;;;;;;;18.02;2.75;;;7.10;99.90;;;;;;5050344;28;20412;-67
2022/01/31 12:00:07;;;;;;;10.20;1.50;;;7.20;99.90;;;;;;5050917;28;20040;-65
2022/01/31 12:02:44;;;;;;;11.70;1.80;;;7.20;99.90;;;;;;5066204;28;20044;-66
2022/01/31 12:05:18;;;;;;;5.60;1.45;;;7.30;99.90;;;;;;5067613;28;20044;-67
2022/01/31 12:07:45;;;;;;;10.45;2.03;;;7.30;99.90;;;;;;5050528;28;20042;-66
2022/01/31 12:10:21;;;;;;;14.13;1.83;;;7.40;99.90;;;;;;5064531;28;20039;-65
2022/01/31 12:12:55;;;;;;;16.48;1.73;;;7.60;99.90;;;;;;5071618;28;20553;-66
2022/01/31 12:15:53;;;;;;;9.52;1.30;;;7.50;99.90;;;;;;5037605;28;20084;-67
2022/01/31 12:23:52;;;;;;;12.50;2.22;;;7.60;99.90;;;;;;5086203;28;19923;-65
2022/01/31 12:26:33;;;;;;;13.13;1.98;;;7.50;99.90;;;;;;5070683;28;20032;-66
2022/01/31 12:29:07;;;;;;;13.40;1.80;;;7.30;99.90;;;;;;5053642;28;20055;-66
2022/01/31 12:31:38;;;;;;;16.40;1.90;;;7.30;99.90;;;;;;5062236;28;20043;-65
2022/01/31 12:34:29;;;;;;;9.63;2.13;;;7.20;99.90;;;;;;5058292;28;20063;-65
2022/01/31 12:36:57;;;;;;;11.05;1.73;;;7.30;99.90;;;;;;5050436;28;20388;-64
2022/01/31 12:39:30;;;;;;;15.70;1.77;;;7.20;99.90;;;;;;5048533;28;20037;-66
2022/01/31 12:42:14;;;;;;;15.77;2.45;;;7.20;99.90;;;;;;5056660;28;20044;-64
2022/01/31 12:44:41;;;;;;;9.68;1.70;;;7.10;99.90;;;;;;5049989;28;20392;-65
2022/01/31 12:47:06;;;;;;;12.45;2.58;;;7.10;99.90;;;;;;5051855;28;20396;-67
2022/01/31 12:49:32;;;;;;;9.27;1.60;;;7.00;99.90;;;;;;5053539;28;20105;-64
2022/01/31 12:52:08;;;;;;;12.15;2.00;;;7.10;99.90;;;;;;5054247;28;20120;-65
2022/01/31 12:54:38;;;;;;;16.30;1.95;;;7.10;99.90;;;;;;5054085;28;20045;-64
2022/01/31 12:57:06;;;;;;;11.90;3.53;;;7.20;99.90;;;;;;5065640;28;20121;-65
2022/01/31 12:59:32;;;;;;;16.23;1.98;;;7.20;99.90;;;;;;5032903;28;20049;-64
2022/01/31 13:01:58;;;;;;;16.35;1.85;;;7.10;99.90;;;;;;5040084;28;20043;-65
2022/01/31 13:04:28;;;;;;;15.45;2.25;;;7.00;99.90;;;;;;5045034;28;20041;-65
2022/01/31 13:06:59;;;;;;;10.90;1.90;;;6.90;99.90;;;;;;5073997;28;20094;-63
2022/01/31 13:09:30;;;;;;;13.45;2.10;;;6.90;99.90;;;;;;5068309;28;20040;-64
2022/01/31 13:12:06;;;;;;;14.23;2.15;;;6.90;99.90;;;;;;5052671;28;20040;-65
2022/01/31 13:14:34;;;;;;;9.77;1.55;;;7.00;99.90;;;;;;5072838;28;20040;-65
2022/01/31 13:19:33;;;;;;;15.15;1.98;;;7.10;99.90;;;;;;5071234;28;20044;-66